sensor_id;sensor_type;location;lat;lon;timestamp;temperature;humidity
60723;DHT22;46574;52.818;6.516;2023-01-16T00:00:27;4.70;99.90
60723;DHT22;46574;52.818;6.516;2023-01-16T00:02:53;4.70;99.90
60723;DHT22;46574;52.818;6.516;2023-01-16T00:05:18;4.70;99.90
60723;DHT22;46574;52.818;6.516;2023-01-16T00:07:44;4.80;99.90
60723;DHT22;46574;52.818;6.516;2023-01-16T00:10:10;4.80;99.90
60723;DHT22;46574;52.818;6.516;2023-01-16T00:12:35;4.80;99.90
60723;DHT22;46574;52.818;6.516;2023-01-16T00:15:01;4.80;99.90
60723;DHT22;46574;52.818;6.516;2023-01-16T00:17:27;4.80;99.90
60723;DHT22;46574;52.818;6.516;2023-01-16T00:19:53;4.90;99.90
60723;DHT22;46574;52.818;6.516;2023-01-16T00:22:18;4.90;99.90
60723;DHT22;46574;52.818;6.516;2023-01-16T00:24:44;4.90;99.90
60723;DHT22;46574;52.818;6.516;2023-01-16T00:27:10;4.90;99.90
60723;DHT22;46574;52.818;6.516;2023-01-16T00:29:36;4.90;99.90
60723;DHT22;46574;52.818;6.516;2023-01-16T00:32:01;5.00;99.90
60723;DHT22;46574;52.818;6.516;2023-01-16T00:34:27;5.00;99.90
60723;DHT22;46574;52.818;6.516;2023-01-16T00:36:52;5.10;99.90
60723;DHT22;46574;52.818;6.516;2023-01-16T00:39:18;5.10;99.90
60723;DHT22;46574;52.818;6.516;2023-01-16T00:41:44;5.10;99.90
60723;DHT22;46574;52.818;6.516;2023-01-16T00:44:09;5.10;99.90
60723;DHT22;46574;52.818;6.516;2023-01-16T00:46:35;5.10;99.90
60723;DHT22;46574;52.818;6.516;2023-01-16T00:49:01;5.00;99.90
60723;DHT22;46574;52.818;6.516;2023-01-16T00:51:26;5.00;99.90
60723;DHT22;46574;52.818;6.516;2023-01-16T00:53:52;5.00;99.90
60723;DHT22;46574;52.818;6.516;2023-01-16T00:56:18;5.00;99.90
60723;DHT22;46574;52.818;6.516;2023-01-16T00:58:44;5.00;99.90
60723;DHT22;46574;52.818;6.516;2023-01-16T01:01:09;4.90;99.90
60723;DHT22;46574;52.818;6.516;2023-01-16T01:03:35;4.90;99.90
60723;DHT22;46574;52.818;6.516;2023-01-16T01:06:06;5.00;99.90
60723;DHT22;46574;52.818;6.516;2023-01-16T01:08:31;5.00;99.90
60723;DHT22;46574;52.818;6.516;2023-01-16T01:10:57;5.00;99.90
60723;DHT22;46574;52.818;6.516;2023-01-16T01:13:22;5.00;99.90
60723;DHT22;46574;52.818;6.516;2023-01-16T01:15:48;4.90;99.90
60723;DHT22;46574;52.818;6.516;2023-01-16T01:18:14;4.90;99.90
60723;DHT22;46574;52.818;6.516;2023-01-16T01:20:39;5.00;99.90
60723;DHT22;46574;52.818;6.516;2023-01-16T01:23:05;4.90;99.90
60723;DHT22;46574;52.818;6.516;2023-01-16T01:25:30;4.90;99.90
60723;DHT22;46574;52.818;6.516;2023-01-16T01:27:56;4.90;99.90
60723;DHT22;46574;52.818;6.516;2023-01-16T01:30:22;4.90;99.90
60723;DHT22;46574;52.818;6.516;2023-01-16T01:32:47;4.80;99.90
60723;DHT22;46574;52.818;6.516;2023-01-16T01:35:13;4.80;99.90
60723;DHT22;46574;52.818;6.516;2023-01-16T01:37:39;4.80;99.90
60723;DHT22;46574;52.818;6.516;2023-01-16T01:40:05;4.80;99.90
60723;DHT22;46574;52.818;6.516;2023-01-16T01:42:37;4.80;99.90
60723;DHT22;46574;52.818;6.516;2023-01-16T01:45:30;4.90;99.90
60723;DHT22;46574;52.818;6.516;2023-01-16T01:48:23;4.90;99.90
60723;DHT22;46574;52.818;6.516;2023-01-16T01:55:54;5.00;99.90
60723;DHT22;46574;52.818;6.516;2023-01-16T01:58:22;5.00;99.90
60723;DHT22;46574;52.818;6.516;2023-01-16T02:00:52;5.10;99.90
60723;DHT22;46574;52.818;6.516;2023-01-16T02:03:27;5.10;99.90
60723;DHT22;46574;52.818;6.516;2023-01-16T02:05:57;5.00;99.90
60723;DHT22;46574;52.818;6.516;2023-01-16T02:08:27;5.10;99.90
60723;DHT22;46574;52.818;6.516;2023-01-16T02:11:06;5.00;99.90
60723;DHT22;46574;52.818;6.516;2023-01-16T02:13:36;5.00;99.90
60723;DHT22;46574;52.818;6.516;2023-01-16T02:16:02;5.00;99.90
60723;DHT22;46574;52.818;6.516;2023-01-16T02:18:46;5.00;99.90
60723;DHT22;46574;52.818;6.516;2023-01-16T02:24:33;5.10;99.90
60723;DHT22;46574;52.818;6.516;2023-01-16T02:27:27;5.10;99.90
60723;DHT22;46574;52.818;6.516;2023-01-16T02:30:08;5.20;99.90
60723;DHT22;46574;52.818;6.516;2023-01-16T02:36:09;5.20;99.90
60723;DHT22;46574;52.818;6.516;2023-01-16T02:38:44;5.20;99.90
60723;DHT22;46574;52.818;6.516;2023-01-16T02:41:29;5.30;99.90
60723;DHT22;46574;52.818;6.516;2023-01-16T02:52:01;5.30;99.90
60723;DHT22;46574;52.818;6.516;2023-01-16T02:54:55;5.30;99.90
60723;DHT22;46574;52.818;6.516;2023-01-16T02:57:29;5.30;99.90
60723;DHT22;46574;52.818;6.516;2023-01-16T02:59:57;5.30;99.90
60723;DHT22;46574;52.818;6.516;2023-01-16T03:02:22;5.30;99.90
60723;DHT22;46574;52.818;6.516;2023-01-16T03:04:50;5.30;99.90
60723;DHT22;46574;52.818;6.516;2023-01-16T03:10:44;5.30;99.90
60723;DHT22;46574;52.818;6.516;2023-01-16T03:16:09;5.30;99.90
60723;DHT22;46574;52.818;6.516;2023-01-16T03:19:02;5.30;99.90
60723;DHT22;46574;52.818;6.516;2023-01-16T03:24:23;5.30;99.90
60723;DHT22;46574;52.818;6.516;2023-01-16T03:26:54;5.30;99.90
60723;DHT22;46574;52.818;6.516;2023-01-16T03:30:31;5.30;99.90
60723;DHT22;46574;52.818;6.516;2023-01-16T03:32:42;5.30;99.90
60723;DHT22;46574;52.818;6.516;2023-01-16T03:35:16;5.30;99.90
60723;DHT22;46574;52.818;6.516;2023-01-16T03:37:49;5.30;99.90
60723;DHT22;46574;52.818;6.516;2023-01-16T03:40:21;5.20;99.90
60723;DHT22;46574;52.818;6.516;2023-01-16T03:46:10;5.20;99.90
60723;DHT22;46574;52.818;6.516;2023-01-16T03:48:44;5.20;99.90
60723;DHT22;46574;52.818;6.516;2023-01-16T03:51:25;5.20;99.90
60723;DHT22;46574;52.818;6.516;2023-01-16T03:54:06;5.20;99.90
60723;DHT22;46574;52.818;6.516;2023-01-16T03:56:53;5.20;99.90
60723;DHT22;46574;52.818;6.516;2023-01-16T03:59:21;5.20;99.90
60723;DHT22;46574;52.818;6.516;2023-01-16T04:01:54;5.20;99.90
60723;DHT22;46574;52.818;6.516;2023-01-16T04:04:32;5.20;99.90
60723;DHT22;46574;52.818;6.516;2023-01-16T04:07:57;5.20;99.90
60723;DHT22;46574;52.818;6.516;2023-01-16T04:10:03;5.20;99.90
60723;DHT22;46574;52.818;6.516;2023-01-16T04:12:34;5.20;99.90
60723;DHT22;46574;52.818;6.516;2023-01-16T04:15:05;5.30;99.90
60723;DHT22;46574;52.818;6.516;2023-01-16T04:17:31;5.20;99.90
60723;DHT22;46574;52.818;6.516;2023-01-16T04:19:58;5.20;99.90
60723;DHT22;46574;52.818;6.516;2023-01-16T04:22:26;5.20;99.90
60723;DHT22;46574;52.818;6.516;2023-01-16T04:24:54;5.30;99.90
60723;DHT22;46574;52.818;6.516;2023-01-16T04:27:21;5.30;99.90
60723;DHT22;46574;52.818;6.516;2023-01-16T04:29:47;5.30;99.90
60723;DHT22;46574;52.818;6.516;2023-01-16T04:32:13;5.20;99.90
60723;DHT22;46574;52.818;6.516;2023-01-16T04:34:38;5.20;99.90
60723;DHT22;46574;52.818;6.516;2023-01-16T04:37:05;5.20;99.90
60723;DHT22;46574;52.818;6.516;2023-01-16T04:39:31;5.20;99.90
60723;DHT22;46574;52.818;6.516;2023-01-16T04:41:56;5.20;99.90
60723;DHT22;46574;52.818;6.516;2023-01-16T04:44:23;5.10;99.90
60723;DHT22;46574;52.818;6.516;2023-01-16T04:46:48;5.20;99.90
60723;DHT22;46574;52.818;6.516;2023-01-16T04:49:14;5.20;99.90
60723;DHT22;46574;52.818;6.516;2023-01-16T04:51:40;5.10;99.90
60723;DHT22;46574;52.818;6.516;2023-01-16T04:54:07;5.10;99.90
60723;DHT22;46574;52.818;6.516;2023-01-16T04:56:33;5.10;99.90
60723;DHT22;46574;52.818;6.516;2023-01-16T04:58:59;5.10;99.90
60723;DHT22;46574;52.818;6.516;2023-01-16T05:01:25;5.10;99.90
60723;DHT22;46574;52.818;6.516;2023-01-16T05:03:50;5.00;99.90
60723;DHT22;46574;52.818;6.516;2023-01-16T05:06:16;5.00;99.90
60723;DHT22;46574;52.818;6.516;2023-01-16T05:08:42;5.00;99.90
60723;DHT22;46574;52.818;6.516;2023-01-16T05:11:08;4.90;99.90
60723;DHT22;46574;52.818;6.516;2023-01-16T05:13:33;4.90;99.90
60723;DHT22;46574;52.818;6.516;2023-01-16T05:15:59;4.80;99.90
60723;DHT22;46574;52.818;6.516;2023-01-16T05:18:25;4.80;99.90
60723;DHT22;46574;52.818;6.516;2023-01-16T05:20:50;4.80;99.90
60723;DHT22;46574;52.818;6.516;2023-01-16T05:23:16;4.70;99.90
60723;DHT22;46574;52.818;6.516;2023-01-16T05:25:42;4.70;99.90
60723;DHT22;46574;52.818;6.516;2023-01-16T05:28:08;4.70;99.90
60723;DHT22;46574;52.818;6.516;2023-01-16T05:30:34;4.70;99.90
60723;DHT22;46574;52.818;6.516;2023-01-16T05:33:00;4.60;99.90
60723;DHT22;46574;52.818;6.516;2023-01-16T05:35:27;4.60;99.90
60723;DHT22;46574;52.818;6.516;2023-01-16T05:37:53;4.60;99.90
60723;DHT22;46574;52.818;6.516;2023-01-16T05:40:18;4.60;99.90
60723;DHT22;46574;52.818;6.516;2023-01-16T05:42:44;4.60;99.90
60723;DHT22;46574;52.818;6.516;2023-01-16T05:45:13;4.60;99.90
60723;DHT22;46574;52.818;6.516;2023-01-16T05:47:39;4.50;99.90
60723;DHT22;46574;52.818;6.516;2023-01-16T05:50:05;4.60;99.90
60723;DHT22;46574;52.818;6.516;2023-01-16T05:52:31;4.60;99.90
60723;DHT22;46574;52.818;6.516;2023-01-16T05:54:56;4.60;99.90
60723;DHT22;46574;52.818;6.516;2023-01-16T05:57:22;4.60;99.90
60723;DHT22;46574;52.818;6.516;2023-01-16T05:59:49;4.60;99.90
60723;DHT22;46574;52.818;6.516;2023-01-16T06:02:19;4.60;99.90
60723;DHT22;46574;52.818;6.516;2023-01-16T06:04:45;4.60;99.90
60723;DHT22;46574;52.818;6.516;2023-01-16T06:07:11;4.60;99.90
60723;DHT22;46574;52.818;6.516;2023-01-16T06:09:37;4.60;99.90
60723;DHT22;46574;52.818;6.516;2023-01-16T06:12:03;4.60;99.90
60723;DHT22;46574;52.818;6.516;2023-01-16T06:14:28;4.60;99.90
60723;DHT22;46574;52.818;6.516;2023-01-16T06:16:54;4.60;99.90
60723;DHT22;46574;52.818;6.516;2023-01-16T06:19:20;4.50;99.90
60723;DHT22;46574;52.818;6.516;2023-01-16T06:21:45;4.50;99.90
60723;DHT22;46574;52.818;6.516;2023-01-16T06:24:11;4.50;99.90
60723;DHT22;46574;52.818;6.516;2023-01-16T06:26:37;4.50;99.90
60723;DHT22;46574;52.818;6.516;2023-01-16T06:29:02;4.50;99.90
60723;DHT22;46574;52.818;6.516;2023-01-16T06:31:28;4.50;99.90
60723;DHT22;46574;52.818;6.516;2023-01-16T06:33:54;4.50;99.90
60723;DHT22;46574;52.818;6.516;2023-01-16T06:36:19;4.50;99.90
60723;DHT22;46574;52.818;6.516;2023-01-16T06:38:45;4.50;99.90
60723;DHT22;46574;52.818;6.516;2023-01-16T06:41:11;4.50;99.90
60723;DHT22;46574;52.818;6.516;2023-01-16T06:43:36;4.50;99.90
60723;DHT22;46574;52.818;6.516;2023-01-16T06:46:02;4.50;99.90
60723;DHT22;46574;52.818;6.516;2023-01-16T06:48:28;4.50;99.90
60723;DHT22;46574;52.818;6.516;2023-01-16T06:50:54;4.50;99.90
60723;DHT22;46574;52.818;6.516;2023-01-16T06:53:20;4.50;99.90
60723;DHT22;46574;52.818;6.516;2023-01-16T06:55:45;4.40;99.90
60723;DHT22;46574;52.818;6.516;2023-01-16T06:58:11;4.40;99.90
60723;DHT22;46574;52.818;6.516;2023-01-16T07:00:37;4.40;99.90
60723;DHT22;46574;52.818;6.516;2023-01-16T07:03:03;4.40;99.90
60723;DHT22;46574;52.818;6.516;2023-01-16T07:05:30;4.30;99.90
60723;DHT22;46574;52.818;6.516;2023-01-16T07:07:57;4.30;99.90
60723;DHT22;46574;52.818;6.516;2023-01-16T07:10:23;4.30;99.90
60723;DHT22;46574;52.818;6.516;2023-01-16T07:12:50;4.30;99.90
60723;DHT22;46574;52.818;6.516;2023-01-16T07:15:17;4.30;99.90
60723;DHT22;46574;52.818;6.516;2023-01-16T07:18:02;4.30;99.90
60723;DHT22;46574;52.818;6.516;2023-01-16T07:20:57;4.30;99.90
60723;DHT22;46574;52.818;6.516;2023-01-16T07:23:45;4.30;99.90
60723;DHT22;46574;52.818;6.516;2023-01-16T07:26:14;4.20;99.90
60723;DHT22;46574;52.818;6.516;2023-01-16T07:28:41;4.20;99.90
60723;DHT22;46574;52.818;6.516;2023-01-16T07:31:07;4.20;99.90
60723;DHT22;46574;52.818;6.516;2023-01-16T07:33:33;4.30;99.90
60723;DHT22;46574;52.818;6.516;2023-01-16T07:35:59;4.30;99.90
60723;DHT22;46574;52.818;6.516;2023-01-16T07:38:24;4.30;99.90
60723;DHT22;46574;52.818;6.516;2023-01-16T07:40:50;4.30;99.90
60723;DHT22;46574;52.818;6.516;2023-01-16T07:43:16;4.30;99.90
60723;DHT22;46574;52.818;6.516;2023-01-16T07:45:41;4.30;99.90
60723;DHT22;46574;52.818;6.516;2023-01-16T07:48:07;4.30;99.90
60723;DHT22;46574;52.818;6.516;2023-01-16T07:50:33;4.30;99.90
60723;DHT22;46574;52.818;6.516;2023-01-16T07:52:58;4.30;99.90
60723;DHT22;46574;52.818;6.516;2023-01-16T07:55:25;4.30;99.90
60723;DHT22;46574;52.818;6.516;2023-01-16T07:57:50;4.30;99.90
60723;DHT22;46574;52.818;6.516;2023-01-16T08:00:16;4.40;99.90
60723;DHT22;46574;52.818;6.516;2023-01-16T08:02:42;4.40;99.90
60723;DHT22;46574;52.818;6.516;2023-01-16T08:05:09;4.40;99.90
60723;DHT22;46574;52.818;6.516;2023-01-16T08:07:35;4.40;99.90
60723;DHT22;46574;52.818;6.516;2023-01-16T08:10:02;4.40;99.90
60723;DHT22;46574;52.818;6.516;2023-01-16T08:12:27;4.40;99.90
60723;DHT22;46574;52.818;6.516;2023-01-16T08:14:53;4.50;99.90
60723;DHT22;46574;52.818;6.516;2023-01-16T08:17:18;4.50;99.90
60723;DHT22;46574;52.818;6.516;2023-01-16T08:19:44;4.50;99.90
60723;DHT22;46574;52.818;6.516;2023-01-16T08:22:10;4.50;99.90
60723;DHT22;46574;52.818;6.516;2023-01-16T08:24:35;4.60;99.90
60723;DHT22;46574;52.818;6.516;2023-01-16T08:27:01;4.60;99.90
60723;DHT22;46574;52.818;6.516;2023-01-16T08:29:27;4.60;99.90
60723;DHT22;46574;52.818;6.516;2023-01-16T08:31:52;4.60;99.90
60723;DHT22;46574;52.818;6.516;2023-01-16T08:34:18;4.60;99.90
60723;DHT22;46574;52.818;6.516;2023-01-16T08:36:44;4.70;99.90
60723;DHT22;46574;52.818;6.516;2023-01-16T08:39:10;4.70;99.90
60723;DHT22;46574;52.818;6.516;2023-01-16T08:41:36;4.70;99.90
60723;DHT22;46574;52.818;6.516;2023-01-16T08:44:21;4.70;99.90
60723;DHT22;46574;52.818;6.516;2023-01-16T08:47:12;4.70;99.90
60723;DHT22;46574;52.818;6.516;2023-01-16T08:49:57;4.70;99.90
60723;DHT22;46574;52.818;6.516;2023-01-16T08:52:41;4.70;99.90
60723;DHT22;46574;52.818;6.516;2023-01-16T08:55:07;4.70;99.90
60723;DHT22;46574;52.818;6.516;2023-01-16T08:57:33;4.80;99.90
60723;DHT22;46574;52.818;6.516;2023-01-16T08:59:59;4.80;99.90
60723;DHT22;46574;52.818;6.516;2023-01-16T09:02:26;4.70;99.90
60723;DHT22;46574;52.818;6.516;2023-01-16T09:04:52;4.80;99.90
60723;DHT22;46574;52.818;6.516;2023-01-16T09:07:20;4.80;99.90
60723;DHT22;46574;52.818;6.516;2023-01-16T09:09:46;4.80;99.90
60723;DHT22;46574;52.818;6.516;2023-01-16T09:12:12;4.80;99.90
60723;DHT22;46574;52.818;6.516;2023-01-16T09:14:57;4.80;99.90
60723;DHT22;46574;52.818;6.516;2023-01-16T09:17:25;4.80;99.90
60723;DHT22;46574;52.818;6.516;2023-01-16T09:19:51;4.90;99.90
60723;DHT22;46574;52.818;6.516;2023-01-16T09:22:17;4.80;99.90
60723;DHT22;46574;52.818;6.516;2023-01-16T09:24:43;4.90;99.90
60723;DHT22;46574;52.818;6.516;2023-01-16T09:27:10;4.90;99.90
60723;DHT22;46574;52.818;6.516;2023-01-16T09:29:35;4.90;99.90
60723;DHT22;46574;52.818;6.516;2023-01-16T09:32:01;4.90;99.90
60723;DHT22;46574;52.818;6.516;2023-01-16T09:34:33;5.00;99.90
60723;DHT22;46574;52.818;6.516;2023-01-16T09:36:58;5.00;99.90
60723;DHT22;46574;52.818;6.516;2023-01-16T09:39:24;5.00;99.90
60723;DHT22;46574;52.818;6.516;2023-01-16T09:45:03;5.10;99.90
60723;DHT22;46574;52.818;6.516;2023-01-16T09:47:30;5.10;99.90
60723;DHT22;46574;52.818;6.516;2023-01-16T09:50:02;5.10;99.90
60723;DHT22;46574;52.818;6.516;2023-01-16T09:52:31;5.10;99.90
60723;DHT22;46574;52.818;6.516;2023-01-16T09:55:26;5.10;99.90
60723;DHT22;46574;52.818;6.516;2023-01-16T09:58:17;5.00;99.90
60723;DHT22;46574;52.818;6.516;2023-01-16T10:01:01;5.10;99.90
60723;DHT22;46574;52.818;6.516;2023-01-16T10:03:27;5.10;99.90
60723;DHT22;46574;52.818;6.516;2023-01-16T10:06:32;5.10;99.90
60723;DHT22;46574;52.818;6.516;2023-01-16T10:09:08;5.10;99.90
60723;DHT22;46574;52.818;6.516;2023-01-16T10:11:50;5.10;99.90
60723;DHT22;46574;52.818;6.516;2023-01-16T10:26:13;5.10;99.90
60723;DHT22;46574;52.818;6.516;2023-01-16T10:28:55;5.00;99.90
60723;DHT22;46574;52.818;6.516;2023-01-16T10:31:37;5.00;99.90
60723;DHT22;46574;52.818;6.516;2023-01-16T10:34:49;4.90;99.90
60723;DHT22;46574;52.818;6.516;2023-01-16T10:36:56;4.90;99.90
60723;DHT22;46574;52.818;6.516;2023-01-16T10:39:24;4.90;99.90
60723;DHT22;46574;52.818;6.516;2023-01-16T10:41:55;4.90;99.90
60723;DHT22;46574;52.818;6.516;2023-01-16T10:44:49;4.90;99.90
60723;DHT22;46574;52.818;6.516;2023-01-16T10:47:36;4.90;99.90
60723;DHT22;46574;52.818;6.516;2023-01-16T10:50:22;4.90;99.90
60723;DHT22;46574;52.818;6.516;2023-01-16T10:52:49;4.90;99.90
60723;DHT22;46574;52.818;6.516;2023-01-16T10:55:15;4.90;99.90
60723;DHT22;46574;52.818;6.516;2023-01-16T10:57:50;4.90;99.90
60723;DHT22;46574;52.818;6.516;2023-01-16T11:00:39;4.90;99.90
60723;DHT22;46574;52.818;6.516;2023-01-16T11:04:09;4.90;99.90
60723;DHT22;46574;52.818;6.516;2023-01-16T11:06:22;4.90;99.90
60723;DHT22;46574;52.818;6.516;2023-01-16T11:11:40;4.90;99.90
60723;DHT22;46574;52.818;6.516;2023-01-16T11:14:26;4.90;99.90
60723;DHT22;46574;52.818;6.516;2023-01-16T11:17:32;4.90;99.90
60723;DHT22;46574;52.818;6.516;2023-01-16T11:20:33;4.90;99.90
60723;DHT22;46574;52.818;6.516;2023-01-16T11:23:05;5.00;99.90
60723;DHT22;46574;52.818;6.516;2023-01-16T11:25:38;4.90;99.90
60723;DHT22;46574;52.818;6.516;2023-01-16T11:28:06;5.00;99.90
60723;DHT22;46574;52.818;6.516;2023-01-16T11:30:44;4.90;99.90
60723;DHT22;46574;52.818;6.516;2023-01-16T11:33:20;4.90;99.90
60723;DHT22;46574;52.818;6.516;2023-01-16T11:35:55;5.00;99.90
60723;DHT22;46574;52.818;6.516;2023-01-16T11:38:23;4.90;99.90
60723;DHT22;46574;52.818;6.516;2023-01-16T11:40:50;4.90;99.90
60723;DHT22;46574;52.818;6.516;2023-01-16T11:43:22;4.90;99.90
60723;DHT22;46574;52.818;6.516;2023-01-16T11:46:38;4.90;99.90
60723;DHT22;46574;52.818;6.516;2023-01-16T11:49:23;4.90;99.90
60723;DHT22;46574;52.818;6.516;2023-01-16T11:51:52;5.00;99.90
60723;DHT22;46574;52.818;6.516;2023-01-16T11:54:27;5.00;99.90
60723;DHT22;46574;52.818;6.516;2023-01-16T12:00:18;5.00;99.90
60723;DHT22;46574;52.818;6.516;2023-01-16T12:02:52;5.00;99.90
60723;DHT22;46574;52.818;6.516;2023-01-16T12:06:15;5.10;99.90
60723;DHT22;46574;52.818;6.516;2023-01-16T12:08:51;5.10;99.90
60723;DHT22;46574;52.818;6.516;2023-01-16T12:14:28;5.10;99.90
60723;DHT22;46574;52.818;6.516;2023-01-16T12:17:17;5.10;99.90
60723;DHT22;46574;52.818;6.516;2023-01-16T12:20:17;5.10;99.90
60723;DHT22;46574;52.818;6.516;2023-01-16T12:28:27;5.20;99.90
60723;DHT22;46574;52.818;6.516;2023-01-16T12:33:42;5.30;99.90
60723;DHT22;46574;52.818;6.516;2023-01-16T12:41:21;5.30;99.90
60723;DHT22;46574;52.818;6.516;2023-01-16T12:44:18;5.30;99.90
60723;DHT22;46574;52.818;6.516;2023-01-16T12:53:12;5.30;99.90
60723;DHT22;46574;52.818;6.516;2023-01-16T12:58:57;5.30;99.90
60723;DHT22;46574;52.818;6.516;2023-01-16T13:01:29;5.30;99.90
60723;DHT22;46574;52.818;6.516;2023-01-16T13:04:00;5.30;99.90
60723;DHT22;46574;52.818;6.516;2023-01-16T13:06:35;5.30;99.90
60723;DHT22;46574;52.818;6.516;2023-01-16T13:09:04;5.30;99.90
60723;DHT22;46574;52.818;6.516;2023-01-16T13:14:59;5.40;99.90
60723;DHT22;46574;52.818;6.516;2023-01-16T13:17:36;5.40;99.90
60723;DHT22;46574;52.818;6.516;2023-01-16T13:20:04;5.40;99.90
60723;DHT22;46574;52.818;6.516;2023-01-16T13:23:23;5.40;99.90
60723;DHT22;46574;52.818;6.516;2023-01-16T13:25:53;5.50;99.90
60723;DHT22;46574;52.818;6.516;2023-01-16T13:30:57;5.60;99.90
60723;DHT22;46574;52.818;6.516;2023-01-16T13:33:28;5.60;99.90
60723;DHT22;46574;52.818;6.516;2023-01-16T13:38:47;5.60;99.90
60723;DHT22;46574;52.818;6.516;2023-01-16T13:41:29;5.60;99.90
60723;DHT22;46574;52.818;6.516;2023-01-16T13:46:49;5.50;99.90
60723;DHT22;46574;52.818;6.516;2023-01-16T13:49:21;5.50;99.90
60723;DHT22;46574;52.818;6.516;2023-01-16T13:51:49;5.50;99.90
60723;DHT22;46574;52.818;6.516;2023-01-16T13:54:22;5.60;99.90
60723;DHT22;46574;52.818;6.516;2023-01-16T13:57:08;5.60;99.90
60723;DHT22;46574;52.818;6.516;2023-01-16T14:08:19;5.70;99.90
60723;DHT22;46574;52.818;6.516;2023-01-16T14:11:22;5.70;99.90
60723;DHT22;46574;52.818;6.516;2023-01-16T14:13:49;5.70;99.90
60723;DHT22;46574;52.818;6.516;2023-01-16T14:16:36;5.70;99.90
60723;DHT22;46574;52.818;6.516;2023-01-16T14:21:43;5.70;99.90
60723;DHT22;46574;52.818;6.516;2023-01-16T14:24:40;5.70;99.90
60723;DHT22;46574;52.818;6.516;2023-01-16T14:27:11;5.70;99.90
60723;DHT22;46574;52.818;6.516;2023-01-16T14:29:50;5.70;99.90
60723;DHT22;46574;52.818;6.516;2023-01-16T14:32:19;5.70;99.90
60723;DHT22;46574;52.818;6.516;2023-01-16T14:37:41;5.80;99.90
60723;DHT22;46574;52.818;6.516;2023-01-16T14:40:16;5.80;99.90
60723;DHT22;46574;52.818;6.516;2023-01-16T14:42:54;5.80;99.90
60723;DHT22;46574;52.818;6.516;2023-01-16T14:45:41;5.80;99.90
60723;DHT22;46574;52.818;6.516;2023-01-16T14:48:37;5.80;99.90
60723;DHT22;46574;52.818;6.516;2023-01-16T14:54:16;5.80;99.90
60723;DHT22;46574;52.818;6.516;2023-01-16T14:57:12;5.80;99.90
60723;DHT22;46574;52.818;6.516;2023-01-16T15:02:35;5.80;99.90
60723;DHT22;46574;52.818;6.516;2023-01-16T15:07:48;5.80;99.90
60723;DHT22;46574;52.818;6.516;2023-01-16T15:10:39;5.80;99.90
60723;DHT22;46574;52.818;6.516;2023-01-16T15:13:18;5.80;99.90
60723;DHT22;46574;52.818;6.516;2023-01-16T15:16:09;5.80;99.90
60723;DHT22;46574;52.818;6.516;2023-01-16T15:18:42;5.80;99.90
60723;DHT22;46574;52.818;6.516;2023-01-16T15:21:26;5.80;99.90
60723;DHT22;46574;52.818;6.516;2023-01-16T15:24:18;5.70;99.90
60723;DHT22;46574;52.818;6.516;2023-01-16T15:29:31;5.70;99.90
60723;DHT22;46574;52.818;6.516;2023-01-16T15:32:07;5.70;99.90
60723;DHT22;46574;52.818;6.516;2023-01-16T15:34:34;5.70;99.90
60723;DHT22;46574;52.818;6.516;2023-01-16T15:37:00;5.70;99.90
60723;DHT22;46574;52.818;6.516;2023-01-16T15:39:39;5.70;99.90
60723;DHT22;46574;52.818;6.516;2023-01-16T15:42:15;5.70;99.90
60723;DHT22;46574;52.818;6.516;2023-01-16T15:45:17;5.70;99.90
60723;DHT22;46574;52.818;6.516;2023-01-16T15:48:32;5.60;99.90
60723;DHT22;46574;52.818;6.516;2023-01-16T15:51:03;5.70;99.90
60723;DHT22;46574;52.818;6.516;2023-01-16T15:53:43;5.60;99.90
60723;DHT22;46574;52.818;6.516;2023-01-16T15:56:36;5.60;99.90
60723;DHT22;46574;52.818;6.516;2023-01-16T15:59:23;5.60;99.90
60723;DHT22;46574;52.818;6.516;2023-01-16T16:01:49;5.60;99.90
60723;DHT22;46574;52.818;6.516;2023-01-16T16:04:15;5.50;99.90
60723;DHT22;46574;52.818;6.516;2023-01-16T16:06:41;5.50;99.90
60723;DHT22;46574;52.818;6.516;2023-01-16T16:09:18;5.50;99.90
60723;DHT22;46574;52.818;6.516;2023-01-16T16:11:45;5.50;99.90
60723;DHT22;46574;52.818;6.516;2023-01-16T16:14:37;5.50;99.90
60723;DHT22;46574;52.818;6.516;2023-01-16T16:17:26;5.50;99.90
60723;DHT22;46574;52.818;6.516;2023-01-16T16:20:31;5.40;99.90
60723;DHT22;46574;52.818;6.516;2023-01-16T16:25:52;5.40;99.90
60723;DHT22;46574;52.818;6.516;2023-01-16T16:28:28;5.40;99.90
60723;DHT22;46574;52.818;6.516;2023-01-16T16:33:25;5.40;99.90
60723;DHT22;46574;52.818;6.516;2023-01-16T16:35:54;5.40;99.90
60723;DHT22;46574;52.818;6.516;2023-01-16T16:43:57;5.40;99.90
60723;DHT22;46574;52.818;6.516;2023-01-16T16:48:53;5.40;99.90
60723;DHT22;46574;52.818;6.516;2023-01-16T16:51:40;5.40;99.90
60723;DHT22;46574;52.818;6.516;2023-01-16T16:54:09;5.40;99.90
60723;DHT22;46574;52.818;6.516;2023-01-16T16:56:37;5.40;99.90
60723;DHT22;46574;52.818;6.516;2023-01-16T16:59:04;5.40;99.90
60723;DHT22;46574;52.818;6.516;2023-01-16T17:01:30;5.40;99.90
60723;DHT22;46574;52.818;6.516;2023-01-16T17:03:57;5.40;99.90
60723;DHT22;46574;52.818;6.516;2023-01-16T17:06:31;5.40;99.90
60723;DHT22;46574;52.818;6.516;2023-01-16T17:08:58;5.40;99.90
60723;DHT22;46574;52.818;6.516;2023-01-16T17:11:24;5.40;99.90
60723;DHT22;46574;52.818;6.516;2023-01-16T17:13:51;5.40;99.90
60723;DHT22;46574;52.818;6.516;2023-01-16T17:16:20;5.40;99.90
60723;DHT22;46574;52.818;6.516;2023-01-16T17:18:46;5.30;99.90
60723;DHT22;46574;52.818;6.516;2023-01-16T17:21:16;5.40;99.90
60723;DHT22;46574;52.818;6.516;2023-01-16T17:23:43;5.40;99.90
60723;DHT22;46574;52.818;6.516;2023-01-16T17:26:10;5.40;99.90
60723;DHT22;46574;52.818;6.516;2023-01-16T17:28:38;5.30;99.90
60723;DHT22;46574;52.818;6.516;2023-01-16T17:31:05;5.40;99.90
60723;DHT22;46574;52.818;6.516;2023-01-16T17:33:31;5.40;99.90
60723;DHT22;46574;52.818;6.516;2023-01-16T17:35:57;5.40;99.90
60723;DHT22;46574;52.818;6.516;2023-01-16T17:38:36;5.40;99.90
60723;DHT22;46574;52.818;6.516;2023-01-16T17:41:03;5.40;99.90
60723;DHT22;46574;52.818;6.516;2023-01-16T17:43:29;5.40;99.90
60723;DHT22;46574;52.818;6.516;2023-01-16T17:46:15;5.40;99.90
60723;DHT22;46574;52.818;6.516;2023-01-16T17:48:42;5.40;99.90
60723;DHT22;46574;52.818;6.516;2023-01-16T17:51:08;5.40;99.90
60723;DHT22;46574;52.818;6.516;2023-01-16T17:53:34;5.40;99.90
60723;DHT22;46574;52.818;6.516;2023-01-16T17:56:02;5.40;99.90
60723;DHT22;46574;52.818;6.516;2023-01-16T17:58:30;5.40;99.90
60723;DHT22;46574;52.818;6.516;2023-01-16T18:01:08;5.40;99.90
60723;DHT22;46574;52.818;6.516;2023-01-16T18:03:35;5.40;99.90
60723;DHT22;46574;52.818;6.516;2023-01-16T18:06:06;5.40;99.90
60723;DHT22;46574;52.818;6.516;2023-01-16T18:08:32;5.40;99.90
60723;DHT22;46574;52.818;6.516;2023-01-16T18:11:00;5.30;99.90
60723;DHT22;46574;52.818;6.516;2023-01-16T18:13:46;5.40;99.90
60723;DHT22;46574;52.818;6.516;2023-01-16T18:16:30;5.30;99.90
60723;DHT22;46574;52.818;6.516;2023-01-16T18:19:15;5.40;99.90
60723;DHT22;46574;52.818;6.516;2023-01-16T18:21:40;5.40;99.90
60723;DHT22;46574;52.818;6.516;2023-01-16T18:24:34;5.40;99.90
60723;DHT22;46574;52.818;6.516;2023-01-16T18:27:02;5.40;99.90